Mehtap Bayraktar — TCPB — position and weather

sailwx.info

Track history (hours):
 
Tides and Currents Weather Stations Pressure Air Temp Water Temp Dewpoint Dewpoint Depression Visibility Wind Speed Wind Dir Waves Ship Positions

Mehtap Bayraktar

Last reported at 2014-Nov-24 04:13 UTC. Time now 2014-Nov-24 09:32 UTC.
Position N 41°21' E 002°10'.

Length 114 m; draft 6.4 m.

Type: Ship (hazmat cat A). MMSI: 271000578.

Date/timePositionNaut miles runAvg speedWind from/ knotsBaromVisibWave heightAir tempDewpointWater temp
2014-Nov-24 04:13N 41°21' E 002°10'0 0.0
2014-Nov-24 03:13N 41°21' E 002°10'0 0.0
2014-Nov-24 02:19N 41°21' E 002°10'0 0.0
2014-Nov-24 01:31N 41°21' E 002°10'0 0.0
2014-Nov-24 00:22N 41°21' E 002°10'0 0.0
2014-Nov-23 23:28N 41°21' E 002°10'0 0.0
2014-Nov-23 22:13N 41°21' E 002°10'0 0.4
2014-Nov-23 21:34N 41°21' E 002°10'1 0.9
2014-Nov-23 20:33N 41°20' E 002°11'0 0.0
2014-Nov-23 18:26N 41°20' E 002°11'0 0.0
2014-Nov-23 17:20N 41°20' E 002°11'0 0.0
2014-Nov-23 16:26N 41°20' E 002°11'0 0.0
2014-Nov-23 15:29N 41°20' E 002°11'0 0.0
2014-Nov-23 14:32N 41°20' E 002°11'0 0.0
2014-Nov-23 13:32N 41°20' E 002°11'0 0.0
2014-Nov-23 11:32N 41°20' E 002°11'0 0.0
2014-Nov-23 08:26N 41°20' E 002°11'0 0.0
2014-Nov-23 07:14N 41°20' E 002°11'0 0.0
2014-Nov-23 05:20N 41°20' E 002°11'0 0.0
2014-Nov-23 04:32N 41°20' E 002°11'0 0.0
2014-Nov-23 03:26N 41°20' E 002°11'0 0.0
2014-Nov-23 02:26N 41°20' E 002°11'0 0.0
2014-Nov-23 01:32N 41°20' E 002°11'0 0.0
2014-Nov-22 22:32N 41°20' E 002°11'0 0.0
2014-Nov-22 19:32N 41°20' E 002°11'0 0.0
2014-Nov-22 18:26N 41°20' E 002°11'0 0.0
2014-Nov-22 16:32N 41°20' E 002°11'0 0.1
2014-Nov-22 15:32N 41°20' E 002°11'0 0.0
2014-Nov-22 14:14N 41°20' E 002°11'0 0.0
2014-Nov-22 13:26N 41°20' E 002°11'0 0.0
2014-Nov-21 20:14N 41°20' E 002°11'0 0.0
2014-Nov-21 18:32N 41°20' E 002°11'0 0.1
2014-Nov-21 16:32N 41°20' E 002°12'10 9.6
2014-Nov-21 15:32N 41°11' E 002°10'1212.2
2014-Nov-21 14:33N 40°59' E 002°09'1211.9
2014-Nov-21 13:33N 40°47' E 002°07'1211.6
2014-Nov-21 12:33N 40°35' E 002°05'1211.9
2014-Nov-21 11:33N 40°24' E 002°04'1212.1
2014-Nov-21 10:33N 40°11' E 002°02'1212.3
2014-Nov-21 09:33N 39°59' E 002°01'1412.6
2014-Nov-21 08:25N 39°45' E 001°59'1112.7
2014-Nov-21 07:33N 39°34' E 001°57'1212.2
2014-Nov-21 06:33N 39°22' E 001°59'1212.4
2014-Nov-21 05:33N 39°10' E 002°04'1212.2
2014-Nov-21 04:33N 38°59' E 002°09'1212.3
2014-Nov-21 03:33N 38°47' E 002°14'1212.3
2014-Nov-21 02:33N 38°35' E 002°19'1212.0
2014-Nov-21 01:33N 38°24' E 002°24'1312.2
2014-Nov-21 00:28N 38°11' E 002°29'1112.3
2014-Nov-20 23:33N 38°01' E 002°34'1212.3
2014-Nov-20 22:33N 37°49' E 002°40'1312.4
2014-Nov-20 21:33N 37°37' E 002°45'1512.6
2014-Nov-20 20:19N 37°23' E 002°52'1012.8
2014-Nov-20 19:33N 37°14' E 002°56'  
2014-Nov-17 20:33N 41°45' E 004°54'1312.2
2014-Nov-17 19:30N 41°58' E 004°56'1312.5
2014-Nov-17 18:29N 42°10' E 004°59'1212.4
2014-Nov-17 17:30N 42°23' E 005°01'1212.7
2014-Nov-17 16:30N 42°35' E 005°02'1212.1
2014-Nov-17 15:33N 42°46' E 005°04'1312.4
2014-Nov-17 14:29N 42°60' E 005°06'1212.8
2014-Nov-17 13:33N 43°11' E 005°08'1111.1
2014-Nov-17 12:33N 43°20' E 005°17'3 2.9
2014-Nov-17 11:31N 43°19' E 005°21'0 0.0
2014-Nov-17 10:31N 43°19' E 005°21'0 0.0
2014-Nov-17 09:31N 43°19' E 005°21'0 0.0
2014-Nov-17 08:31N 43°19' E 005°21'0 0.0
2014-Nov-17 07:31N 43°19' E 005°21'0 0.0
2014-Nov-17 06:34N 43°19' E 005°21'0 0.0
2014-Nov-17 05:31N 43°19' E 005°21'0 0.0
2014-Nov-17 04:31N 43°19' E 005°21'0 0.0
2014-Nov-17 03:31N 43°19' E 005°21'0 0.0
2014-Nov-17 02:31N 43°19' E 005°21'0 0.0
2014-Nov-17 01:31N 43°19' E 005°21'0 0.0
2014-Nov-17 00:31N 43°19' E 005°21'0 0.0
2014-Nov-16 23:28N 43°19' E 005°21'0 0.0
2014-Nov-16 22:16N 43°19' E 005°21'0 0.0
2014-Nov-16 21:28N 43°19' E 005°21'0 0.0
2014-Nov-16 20:31N 43°19' E 005°21'0 0.0
2014-Nov-16 19:28N 43°19' E 005°21'0 0.0
2014-Nov-16 18:31N 43°19' E 005°21'0 0.0
2014-Nov-16 17:34N 43°19' E 005°21'0 0.0
2014-Nov-16 16:34N 43°19' E 005°21'0 0.0
2014-Nov-16 15:34N 43°19' E 005°21'0 0.0
2014-Nov-16 14:34N 43°19' E 005°21'0 0.0
2014-Nov-16 13:28N 43°19' E 005°21'0 0.0
2014-Nov-16 12:28N 43°19' E 005°21'0 0.0
2014-Nov-16 11:34N 43°19' E 005°21'0 0.0
2014-Nov-16 10:31N 43°19' E 005°21'0 0.0
2014-Nov-16 09:31N 43°19' E 005°21'0 0.0
2014-Nov-16 08:31N 43°19' E 005°21'0 0.0
2014-Nov-16 07:31N 43°19' E 005°21'0 0.0
2014-Nov-16 06:31N 43°19' E 005°21'0 0.0
2014-Nov-16 05:31N 43°19' E 005°21'0 0.0
2014-Nov-16 04:31N 43°19' E 005°21'0 0.0
2014-Nov-16 03:34N 43°19' E 005°21'0 0.0
2014-Nov-16 02:31N 43°19' E 005°21'0 0.0
2014-Nov-16 01:31N 43°19' E 005°21'0 0.0
2014-Nov-16 00:28N 43°19' E 005°21'0 0.0
2014-Nov-15 23:31N 43°19' E 005°21'0 0.0
2014-Nov-15 22:31N 43°19' E 005°21'0 0.0
2014-Nov-15 21:28N 43°19' E 005°21'0 0.0
2014-Nov-15 20:28N 43°19' E 005°21'0 0.0
2014-Nov-15 19:31N 43°19' E 005°21'0 0.2
2014-Nov-15 18:33N 43°19' E 005°21'7 6.7
2014-Nov-15 17:33N 43°17' E 005°13'1211.4
2014-Nov-15 16:33N 43°07' E 005°06'1211.7
2014-Nov-15 15:33N 42°58' E 004°56'1611.7
2014-Nov-15 14:12N 42°45' E 004°43'911.4
2014-Nov-15 13:27N 42°38' E 004°36'1211.6
2014-Nov-15 12:27N 42°29' E 004°27'1011.3
2014-Nov-15 11:33N 42°21' E 004°18'1211.4
2014-Nov-15 10:29N 42°11' E 004°08'1211.5
2014-Nov-15 09:28N 42°02' E 003°59'1311.3
2014-Nov-15 08:20N 41°52' E 003°48'5911.8
2014-Nov-15 03:20N 41°16' E 002°45'911.6
2014-Nov-15 02:33N 41°10' E 002°36'1211.4
2014-Nov-15 01:33N 41°04' E 002°23'1212.0
2014-Nov-15 00:33N 40°57' E 002°10'1211.8
2014-Nov-14 23:33N 40°50' E 001°58'1212.0
2014-Nov-14 22:33N 40°43' E 001°45'1212.1
2014-Nov-14 21:33N 40°35' E 001°32'1211.9
2014-Nov-14 20:33N 40°29' E 001°19'1212.2
2014-Nov-14 19:33N 40°22' E 001°06'1312.5
2014-Nov-14 18:33N 40°16' E 000°51'1312.9
2014-Nov-14 17:33N 40°09' E 000°37'1212.3
2014-Nov-14 16:33N 40°03' E 000°23'  
Track history (hours):
 
Tides and Currents Weather Stations Pressure Air Temp Water Temp Dewpoint Dewpoint Depression Visibility Wind Speed Wind Dir Waves Ship Positions

Mehtap Bayraktar

Last reported at 2014-Nov-24 04:13 UTC. Time now 2014-Nov-24 09:32 UTC.
Position N 41°21' E 002°10'.

Length 114 m; draft 6.4 m.

Type: Ship (hazmat cat A). MMSI: 271000578.

Date/timePositionNaut miles runAvg speedWind from/ knotsBaromVisibWave heightAir tempDewpointWater temp
2014-Nov-24 04:13N 41°21' E 002°10'0 0.0
2014-Nov-24 03:13N 41°21' E 002°10'0 0.0
2014-Nov-24 02:19N 41°21' E 002°10'0 0.0
2014-Nov-24 01:31N 41°21' E 002°10'0 0.0
2014-Nov-24 00:22N 41°21' E 002°10'0 0.0
2014-Nov-23 23:28N 41°21' E 002°10'0 0.0
2014-Nov-23 22:13N 41°21' E 002°10'0 0.4
2014-Nov-23 21:34N 41°21' E 002°10'1 0.9
2014-Nov-23 20:33N 41°20' E 002°11'0 0.0
2014-Nov-23 18:26N 41°20' E 002°11'0 0.0
2014-Nov-23 17:20N 41°20' E 002°11'0 0.0
2014-Nov-23 16:26N 41°20' E 002°11'0 0.0
2014-Nov-23 15:29N 41°20' E 002°11'0 0.0
2014-Nov-23 14:32N 41°20' E 002°11'0 0.0
2014-Nov-23 13:32N 41°20' E 002°11'0 0.0
2014-Nov-23 11:32N 41°20' E 002°11'0 0.0
2014-Nov-23 08:26N 41°20' E 002°11'0 0.0
2014-Nov-23 07:14N 41°20' E 002°11'0 0.0
2014-Nov-23 05:20N 41°20' E 002°11'0 0.0
2014-Nov-23 04:32N 41°20' E 002°11'0 0.0
2014-Nov-23 03:26N 41°20' E 002°11'0 0.0
2014-Nov-23 02:26N 41°20' E 002°11'0 0.0
2014-Nov-23 01:32N 41°20' E 002°11'0 0.0
2014-Nov-22 22:32N 41°20' E 002°11'0 0.0
2014-Nov-22 19:32N 41°20' E 002°11'0 0.0
2014-Nov-22 18:26N 41°20' E 002°11'0 0.0
2014-Nov-22 16:32N 41°20' E 002°11'0 0.1
2014-Nov-22 15:32N 41°20' E 002°11'0 0.0
2014-Nov-22 14:14N 41°20' E 002°11'0 0.0
2014-Nov-22 13:26N 41°20' E 002°11'0 0.0
2014-Nov-21 20:14N 41°20' E 002°11'0 0.0
2014-Nov-21 18:32N 41°20' E 002°11'0 0.1
2014-Nov-21 16:32N 41°20' E 002°12'10 9.6
2014-Nov-21 15:32N 41°11' E 002°10'1212.2
2014-Nov-21 14:33N 40°59' E 002°09'1211.9
2014-Nov-21 13:33N 40°47' E 002°07'1211.6
2014-Nov-21 12:33N 40°35' E 002°05'1211.9
2014-Nov-21 11:33N 40°24' E 002°04'1212.1
2014-Nov-21 10:33N 40°11' E 002°02'1212.3
2014-Nov-21 09:33N 39°59' E 002°01'1412.6
2014-Nov-21 08:25N 39°45' E 001°59'1112.7
2014-Nov-21 07:33N 39°34' E 001°57'1212.2
2014-Nov-21 06:33N 39°22' E 001°59'1212.4
2014-Nov-21 05:33N 39°10' E 002°04'1212.2
2014-Nov-21 04:33N 38°59' E 002°09'1212.3
2014-Nov-21 03:33N 38°47' E 002°14'1212.3
2014-Nov-21 02:33N 38°35' E 002°19'1212.0
2014-Nov-21 01:33N 38°24' E 002°24'1312.2
2014-Nov-21 00:28N 38°11' E 002°29'1112.3
2014-Nov-20 23:33N 38°01' E 002°34'1212.3
2014-Nov-20 22:33N 37°49' E 002°40'1312.4
2014-Nov-20 21:33N 37°37' E 002°45'1512.6
2014-Nov-20 20:19N 37°23' E 002°52'1012.8
2014-Nov-20 19:33N 37°14' E 002°56'  
2014-Nov-17 20:33N 41°45' E 004°54'1312.2
2014-Nov-17 19:30N 41°58' E 004°56'1312.5
2014-Nov-17 18:29N 42°10' E 004°59'1212.4
2014-Nov-17 17:30N 42°23' E 005°01'1212.7
2014-Nov-17 16:30N 42°35' E 005°02'1212.1
2014-Nov-17 15:33N 42°46' E 005°04'1312.4
2014-Nov-17 14:29N 42°60' E 005°06'1212.8
2014-Nov-17 13:33N 43°11' E 005°08'1111.1
2014-Nov-17 12:33N 43°20' E 005°17'3 2.9
2014-Nov-17 11:31N 43°19' E 005°21'0 0.0
2014-Nov-17 10:31N 43°19' E 005°21'0 0.0
2014-Nov-17 09:31N 43°19' E 005°21'0 0.0
2014-Nov-17 08:31N 43°19' E 005°21'0 0.0
2014-Nov-17 07:31N 43°19' E 005°21'0 0.0
2014-Nov-17 06:34N 43°19' E 005°21'0 0.0
2014-Nov-17 05:31N 43°19' E 005°21'0 0.0
2014-Nov-17 04:31N 43°19' E 005°21'0 0.0
2014-Nov-17 03:31N 43°19' E 005°21'0 0.0
2014-Nov-17 02:31N 43°19' E 005°21'0 0.0
2014-Nov-17 01:31N 43°19' E 005°21'0 0.0
2014-Nov-17 00:31N 43°19' E 005°21'0 0.0
2014-Nov-16 23:28N 43°19' E 005°21'0 0.0
2014-Nov-16 22:16N 43°19' E 005°21'0 0.0
2014-Nov-16 21:28N 43°19' E 005°21'0 0.0
2014-Nov-16 20:31N 43°19' E 005°21'0 0.0
2014-Nov-16 19:28N 43°19' E 005°21'0 0.0
2014-Nov-16 18:31N 43°19' E 005°21'0 0.0
2014-Nov-16 17:34N 43°19' E 005°21'0 0.0
2014-Nov-16 16:34N 43°19' E 005°21'0 0.0
2014-Nov-16 15:34N 43°19' E 005°21'0 0.0
2014-Nov-16 14:34N 43°19' E 005°21'0 0.0
2014-Nov-16 13:28N 43°19' E 005°21'0 0.0
2014-Nov-16 12:28N 43°19' E 005°21'0 0.0
2014-Nov-16 11:34N 43°19' E 005°21'0 0.0
2014-Nov-16 10:31N 43°19' E 005°21'0 0.0
2014-Nov-16 09:31N 43°19' E 005°21'0 0.0
2014-Nov-16 08:31N 43°19' E 005°21'0 0.0
2014-Nov-16 07:31N 43°19' E 005°21'0 0.0
2014-Nov-16 06:31N 43°19' E 005°21'0 0.0
2014-Nov-16 05:31N 43°19' E 005°21'0 0.0
2014-Nov-16 04:31N 43°19' E 005°21'0 0.0
2014-Nov-16 03:34N 43°19' E 005°21'0 0.0
2014-Nov-16 02:31N 43°19' E 005°21'0 0.0
2014-Nov-16 01:31N 43°19' E 005°21'0 0.0
2014-Nov-16 00:28N 43°19' E 005°21'0 0.0
2014-Nov-15 23:31N 43°19' E 005°21'0 0.0
2014-Nov-15 22:31N 43°19' E 005°21'0 0.0
2014-Nov-15 21:28N 43°19' E 005°21'0 0.0
2014-Nov-15 20:28N 43°19' E 005°21'0 0.0
2014-Nov-15 19:31N 43°19' E 005°21'0 0.2
2014-Nov-15 18:33N 43°19' E 005°21'7 6.7
2014-Nov-15 17:33N 43°17' E 005°13'1211.4
2014-Nov-15 16:33N 43°07' E 005°06'1211.7
2014-Nov-15 15:33N 42°58' E 004°56'1611.7
2014-Nov-15 14:12N 42°45' E 004°43'911.4
2014-Nov-15 13:27N 42°38' E 004°36'1211.6
2014-Nov-15 12:27N 42°29' E 004°27'1011.3
2014-Nov-15 11:33N 42°21' E 004°18'1211.4
2014-Nov-15 10:29N 42°11' E 004°08'1211.5
2014-Nov-15 09:28N 42°02' E 003°59'1311.3
2014-Nov-15 08:20N 41°52' E 003°48'5911.8
2014-Nov-15 03:20N 41°16' E 002°45'911.6
2014-Nov-15 02:33N 41°10' E 002°36'1211.4
2014-Nov-15 01:33N 41°04' E 002°23'1212.0
2014-Nov-15 00:33N 40°57' E 002°10'1211.8
2014-Nov-14 23:33N 40°50' E 001°58'1212.0
2014-Nov-14 22:33N 40°43' E 001°45'1212.1
2014-Nov-14 21:33N 40°35' E 001°32'1211.9
2014-Nov-14 20:33N 40°29' E 001°19'1212.2
2014-Nov-14 19:33N 40°22' E 001°06'1312.5
2014-Nov-14 18:33N 40°16' E 000°51'1312.9
2014-Nov-14 17:33N 40°09' E 000°37'1212.3
2014-Nov-14 16:33N 40°03' E 000°23'  

Dump ship's entire track history